TAF EHKV
METAR EHKV
EHKV 090755Z AUTO 26016KT 9999 FEW011 BKN021 OVC024 07/04 Q0997=
EHKV 090725Z AUTO 26017KT 9999 FEW014 BKN018 OVC022 07/04 Q0997=
EHKV 090655Z AUTO 25016KT 9999 FEW012 SCT017 OVC020 07/04 Q0997=
EHKV 090625Z AUTO 25018KT 9999 FEW011 SCT017 BKN021 07/04 Q0997=
EHKV 090555Z AUTO 23019KT 9999 FEW012 SCT015 BKN020 07/04 Q0996=
WC EHKV
WS EHKV
WV EHKV